Time;durP1;ratioP1;P1;durP2;ratioP2;P2;SDS_P1;SDS_P2;PMS_P1;PMS_P2;Temp;Humidity;BMP_temperature;BMP_pressure;BME280_temperature;BME280_humidity;BME280_pressure;Samples;Min_cycle;Max_cycle;Signal;HPM_P1;HPM_P2
2021/03/12 00:02:58;;;;;;;8.73;1.60;;;;;;;5.05;79.28;99526.34;10165819;28;20054;-67
2021/03/12 00:07:54;;;;;;;7.55;1.80;;;;;;;5.04;79.22;99530.19;10162291;28;20112;-66
2021/03/12 00:12:51;;;;;;;5.95;1.50;;;;;;;5.04;79.26;99535.59;10175477;28;20041;-67
2021/03/12 00:17:49;;;;;;;7.50;1.70;;;;;;;5.10;78.90;99545.19;10167895;28;20476;-67
2021/03/12 00:22:46;;;;;;;5.32;1.95;;;;;;;5.05;79.19;99553.44;10163404;28;20046;-67
2021/03/12 00:27:43;;;;;;;6.03;1.40;;;;;;;5.10;78.69;99571.47;10169404;28;20053;-66
2021/03/12 00:32:39;;;;;;;7.32;1.13;;;;;;;5.05;78.62;99580.53;10163662;28;20073;-69
2021/03/12 00:37:35;;;;;;;5.70;0.88;;;;;;;5.14;78.20;99589.53;10164720;28;20133;-70
2021/03/12 00:42:31;;;;;;;5.82;1.00;;;;;;;5.15;77.37;99585.72;10167667;28;20062;-67
2021/03/12 00:47:28;;;;;;;7.28;1.05;;;;;;;5.11;77.74;99602.91;10159527;28;20064;-69
2021/03/12 00:52:24;;;;;;;5.10;0.90;;;;;;;5.14;77.65;99592.22;10164536;28;20038;-70
2021/03/12 00:57:20;;;;;;;4.78;1.15;;;;;;;5.14;77.54;99600.38;10170470;28;20622;-70
2021/03/12 01:02:16;;;;;;;4.72;1.17;;;;;;;5.14;77.28;99600.38;10173783;28;20047;-69
2021/03/12 01:07:12;;;;;;;4.55;0.90;;;;;;;5.10;77.61;99593.94;10180604;28;20073;-68
2021/03/12 01:12:08;;;;;;;7.55;1.15;;;;;;;5.06;77.60;99614.66;10181202;28;21445;-70
2021/03/12 01:17:04;;;;;;;7.95;1.52;;;;;;;5.05;77.69;99602.22;10169149;28;20057;-68
2021/03/12 01:22:00;;;;;;;7.78;1.23;;;;;;;4.96;77.63;99609.47;10180378;28;20499;-67
2021/03/12 01:26:59;;;;;;;7.60;1.40;;;;;;;5.04;77.16;99616.88;10170907;28;20061;-70
2021/03/12 01:31:55;;;;;;;7.93;1.30;;;;;;;5.00;77.75;99615.88;10180296;28;20172;-70
2021/03/12 01:36:51;;;;;;;5.63;1.08;;;;;;;4.99;77.51;99611.56;10166372;28;20169;-69
2021/03/12 01:41:47;;;;;;;6.90;1.20;;;;;;;4.88;78.04;99629.19;10162428;28;20133;-70
2021/03/12 01:46:43;;;;;;;3.45;1.05;;;;;;;4.86;77.49;99626.78;10177693;28;20056;-69
2021/03/12 01:51:40;;;;;;;8.13;1.02;;;;;;;4.82;78.27;99615.72;10169401;28;20173;-68
2021/03/12 01:56:36;;;;;;;7.18;1.30;;;;;;;4.89;77.48;99630.78;10169498;28;20191;-68
2021/03/12 02:01:32;;;;;;;5.05;1.42;;;;;;;4.87;77.78;99639.19;10175331;28;20057;-68
2021/03/12 02:06:28;;;;;;;10.30;1.85;;;;;;;4.88;77.61;99626.47;10173761;28;20117;-68
2021/03/12 02:11:24;;;;;;;7.38;1.77;;;;;;;4.92;77.31;99630.97;10177285;28;20057;-68
2021/03/12 02:16:33;;;;;;;9.57;2.28;;;;;;;4.91;77.35;99632.06;10166738;28;20622;-69
2021/03/12 02:21:37;;;;;;;9.60;1.73;;;;;;;4.93;77.63;99648.03;10184998;28;20049;-67
2021/03/12 02:26:38;;;;;;;9.65;1.55;;;;;;;4.97;77.54;99649.00;10171523;28;20054;-68
2021/03/12 02:31:36;;;;;;;13.70;2.55;;;;;;;5.02;77.54;99646.19;10171880;28;20113;-68
2021/03/12 02:36:36;;;;;;;10.05;1.75;;;;;;;5.03;77.43;99661.31;10160766;28;20149;-69
2021/03/12 02:41:34;;;;;;;13.70;2.23;;;;;;;5.05;77.39;99664.53;10171382;28;20504;-68
2021/03/12 02:46:31;;;;;;;16.33;2.28;;;;;;;4.94;77.41;99671.28;10178359;28;20513;-67
2021/03/12 02:51:27;;;;;;;8.05;1.27;;;;;;;4.97;77.83;99682.31;10163767;28;20069;-68
2021/03/12 02:56:23;;;;;;;17.10;2.00;;;;;;;5.03;77.91;99683.00;10164881;28;20707;-68
2021/03/12 03:01:20;;;;;;;8.98;2.30;;;;;;;5.01;78.33;99682.50;10169258;28;20408;-63
2021/03/12 03:06:18;;;;;;;18.67;2.85;;;;;;;4.97;78.56;99708.63;10160558;28;20053;-67
2021/03/12 03:11:15;;;;;;;13.75;2.38;;;;;;;4.94;79.31;99703.78;10167697;28;20568;-64
2021/03/12 03:16:30;;;;;;;16.08;3.17;;;;;;;5.03;78.97;99702.75;10169533;28;20424;-70
2021/03/12 03:21:27;;;;;;;14.50;3.15;;;;;;;5.07;79.47;99708.38;10175916;28;20453;-67
2021/03/12 03:26:23;;;;;;;19.38;3.90;;;;;;;5.00;81.29;99724.25;10162904;28;20064;-67
2021/03/12 03:31:20;;;;;;;16.98;4.05;;;;;;;4.89;81.45;99728.28;10166976;28;20092;-65
2021/03/12 03:36:16;;;;;;;12.50;4.50;;;;;;;4.91;81.18;99729.56;10160931;28;20091;-66
2021/03/12 03:41:15;;;;;;;13.15;2.80;;;;;;;4.90;81.12;99740.72;10157995;28;20480;-67
2021/03/12 03:46:12;;;;;;;14.73;3.72;;;;;;;4.91;80.57;99739.63;10168065;28;20049;-68
2021/03/12 03:51:11;;;;;;;12.95;4.40;;;;;;;4.97;79.64;99730.28;10168058;28;20050;-66
2021/03/12 03:56:10;;;;;;;19.77;4.00;;;;;;;4.95;79.36;99737.91;10170364;28;20819;-65
2021/03/12 04:01:07;;;;;;;13.48;2.78;;;;;;;5.00;77.52;99735.09;10159855;28;20086;-65
2021/03/12 04:06:05;;;;;;;20.90;5.35;;;;;;;5.09;77.42;99743.31;10153762;28;20062;-66
2021/03/12 04:11:01;;;;;;;8.73;2.60;;;;;;;5.11;76.45;99760.84;10168603;28;20050;-68
2021/03/12 04:15:58;;;;;;;13.27;3.70;;;;;;;5.17;75.74;99762.31;10162151;28;20050;-68
2021/03/12 04:20:55;;;;;;;14.45;2.95;;;;;;;5.17;74.57;99784.00;10166060;28;20104;-68
2021/03/12 04:25:52;;;;;;;10.55;2.25;;;;;;;5.18;74.27;99799.19;10158134;28;20050;-67
2021/03/12 04:30:48;;;;;;;13.25;2.28;;;;;;;5.20;72.46;99805.09;10171968;28;20081;-67
2021/03/12 04:35:44;;;;;;;12.82;2.80;;;;;;;5.17;73.31;99805.69;10184512;28;20042;-67
2021/03/12 04:40:40;;;;;;;13.75;2.92;;;;;;;5.16;74.51;99827.69;10181500;28;20096;-66
2021/03/12 04:45:36;;;;;;;14.65;3.03;;;;;;;5.14;74.08;99827.97;10180473;28;20416;-66
2021/03/12 04:50:33;;;;;;;10.63;2.15;;;;;;;5.17;73.71;99854.47;10176426;28;20069;-67
2021/03/12 04:55:30;;;;;;;10.43;2.00;;;;;;;5.21;73.74;99850.06;10173827;28;20561;-67
2021/03/12 05:00:27;;;;;;;17.08;2.58;;;;;;;5.21;73.21;99847.34;10157432;28;20861;-68
2021/03/12 05:05:24;;;;;;;11.60;2.30;;;;;;;5.23;73.01;99858.69;10167838;28;20100;-69
2021/03/12 05:10:20;;;;;;;13.10;2.67;;;;;;;5.24;72.37;99854.06;10171189;28;20132;-69
2021/03/12 05:15:16;;;;;;;13.05;3.13;;;;;;;5.19;72.53;99884.78;10166204;28;20169;-69
2021/03/12 05:20:12;;;;;;;18.90;3.78;;;;;;;5.17;72.81;99870.72;10162884;28;20058;-68
2021/03/12 05:25:09;;;;;;;15.10;2.78;;;;;;;5.15;72.52;99894.63;10169572;28;20086;-68
2021/03/12 05:30:07;;;;;;;10.30;2.38;;;;;;;5.06;71.84;99891.03;10167294;28;20050;-67
2021/03/12 05:35:03;;;;;;;15.90;2.47;;;;;;;5.10;72.70;99902.06;10181186;28;20458;-63
2021/03/12 05:39:59;;;;;;;15.43;2.83;;;;;;;5.06;72.63;99902.66;10169562;28;20046;-67
2021/03/12 05:44:57;;;;;;;13.52;2.45;;;;;;;5.10;71.80;99923.72;10175649;28;20056;-67
2021/03/12 05:49:54;;;;;;;17.00;4.45;;;;;;;5.08;72.19;99921.31;10167622;28;20147;-67
2021/03/12 05:54:53;;;;;;;16.27;2.85;;;;;;;5.14;72.09;99941.00;10168172;28;20551;-67
2021/03/12 05:59:50;;;;;;;13.00;2.83;;;;;;;5.13;71.16;99940.19;10166970;28;20042;-67
2021/03/12 06:04:47;;;;;;;18.88;3.53;;;;;;;5.15;71.03;99927.16;10172989;28;20323;-68
2021/03/12 06:09:44;;;;;;;13.50;2.63;;;;;;;5.06;71.07;99972.31;10160876;28;20056;-67
2021/03/12 06:14:53;;;;;;;12.18;2.60;;;;;;;5.12;70.89;99962.97;10161575;28;20038;-68
2021/03/12 06:19:56;;;;;;;11.55;2.10;;;;;;;5.12;69.97;99962.97;10155267;28;20053;-68
2021/03/12 06:24:52;;;;;;;16.00;2.25;;;;;;;5.01;69.79;99953.41;10156641;28;21348;-67
2021/03/12 06:29:48;;;;;;;22.25;3.38;;;;;;;5.04;69.89;99996.19;10166293;28;20077;-67
2021/03/12 06:34:59;;;;;;;16.23;3.65;;;;;;;5.08;69.36;100002.59;10162180;28;20113;-67
2021/03/12 06:39:55;;;;;;;11.20;2.90;;;;;;;5.12;69.81;100003.63;10158433;28;20116;-67
2021/03/12 06:44:51;;;;;;;13.30;2.47;;;;;;;5.07;69.19;100009.13;10159208;28;20038;-68
2021/03/12 06:49:57;;;;;;;15.48;2.97;;;;;;;5.11;69.27;100007.44;10162330;28;20109;-67
2021/03/12 06:54:54;;;;;;;13.75;2.95;;;;;;;5.18;69.18;100013.28;10159304;28;20057;-66
2021/03/12 07:00:05;;;;;;;10.77;2.50;;;;;;;5.23;69.59;100034.06;10158024;28;20057;-66
2021/03/12 07:05:02;;;;;;;14.63;2.45;;;;;;;5.22;69.94;100044.09;10156850;28;20042;-67
2021/03/12 07:09:59;;;;;;;8.27;1.52;;;;;;;5.18;69.60;100040.38;10207745;28;20521;-67
2021/03/12 07:14:55;;;;;;;14.30;2.20;;;;;;;5.23;70.01;100042.19;10171076;28;20033;-67
2021/03/12 07:19:51;;;;;;;17.05;3.33;;;;;;;5.21;69.11;100056.03;10163493;28;20052;-67
2021/03/12 07:24:47;;;;;;;17.60;2.75;;;;;;;5.22;69.13;100056.81;10167272;28;20052;-68
2021/03/12 07:29:45;;;;;;;14.50;2.17;;;;;;;5.24;68.47;100082.56;10159693;28;20049;-70
2021/03/12 07:34:44;;;;;;;15.52;2.35;;;;;;;5.27;67.28;100073.81;10168137;28;20156;-67
2021/03/12 07:39:44;;;;;;;17.27;2.40;;;;;;;5.28;68.22;100072.69;10160793;28;20389;-66
2021/03/12 07:44:46;;;;;;;10.98;1.92;;;;;;;5.40;68.60;100093.13;10152238;28;20177;-63
2021/03/12 07:49:49;;;;;;;13.05;2.30;;;;;;;5.40;68.29;100095.81;10158167;28;20460;-63
2021/03/12 07:54:47;;;;;;;12.10;2.20;;;;;;;5.45;68.37;100098.44;10161308;28;20050;-67
2021/03/12 07:59:47;;;;;;;11.00;2.13;;;;;;;5.41;68.12;100097.44;10160950;28;20787;-67
2021/03/12 08:04:46;;;;;;;18.02;2.10;;;;;;;5.42;68.70;100099.84;10170556;28;20799;-66
2021/03/12 08:09:45;;;;;;;11.93;1.98;;;;;;;5.42;68.34;100109.88;10163009;28;20069;-67
2021/03/12 08:14:41;;;;;;;14.95;1.75;;;;;;;5.55;68.51;100109.13;10174607;28;20057;-68
2021/03/12 08:19:40;;;;;;;9.85;2.00;;;;;;;5.63;68.10;100116.56;10171333;28;20065;-66
2021/03/12 08:24:52;;;;;;;23.90;3.67;;;;;;;5.81;67.59;100117.59;10171443;28;20054;-66
2021/03/12 08:29:49;;;;;;;11.45;1.60;;;;;;;5.84;66.81;100127.81;10180569;28;20060;-66
2021/03/12 08:34:45;;;;;;;9.90;1.85;;;;;;;5.81;67.06;100125.72;10170503;28;20047;-65
2021/03/12 08:39:45;;;;;;;8.65;1.58;;;;;;;5.83;66.96;100141.72;10172043;28;20054;-66
2021/03/12 08:44:41;;;;;;;16.75;2.65;;;;;;;5.92;66.89;100131.78;10168533;28;20061;-65
2021/03/12 08:49:38;;;;;;;10.93;2.33;;;;;;;5.85;66.39;100134.88;10163987;28;20116;-62
2021/03/12 08:54:44;;;;;;;9.25;2.00;;;;;;;6.02;66.54;100142.44;10169404;28;20048;-67
2021/03/12 08:59:40;;;;;;;10.27;1.90;;;;;;;6.20;66.13;100145.38;10166770;28;20054;-66
2021/03/12 09:04:36;;;;;;;14.55;2.60;;;;;;;6.29;65.30;100138.13;10176741;28;21384;-66
2021/03/12 09:09:34;;;;;;;11.43;2.08;;;;;;;6.24;65.33;100141.75;10171674;28;20049;-67
2021/03/12 09:14:38;;;;;;;10.25;1.67;;;;;;;6.36;64.79;100148.56;10175282;28;20096;-67
2021/03/12 09:19:35;;;;;;;10.70;1.67;;;;;;;6.51;64.20;100135.47;10184105;28;20050;-66
2021/03/12 09:24:31;;;;;;;7.45;1.65;;;;;;;6.51;63.21;100157.19;10183688;28;20393;-67
2021/03/12 09:29:35;;;;;;;8.82;1.73;;;;;;;6.58;63.67;100147.84;10165361;28;20073;-66
2021/03/12 09:34:31;;;;;;;9.38;1.92;;;;;;;6.38;63.31;100147.16;10155267;28;20046;-65
2021/03/12 09:39:28;;;;;;;7.53;1.50;;;;;;;6.36;64.24;100138.53;10162057;28;20058;-66
2021/03/12 09:44:25;;;;;;;13.13;2.17;;;;;;;6.35;64.97;100142.31;10174979;28;20092;-65
2021/03/12 09:49:28;;;;;;;8.32;2.05;;;;;;;6.32;63.59;100164.66;10159319;28;20061;-67
2021/03/12 09:54:26;;;;;;;11.77;2.08;;;;;;;6.43;63.88;100170.69;10163881;28;20054;-64
2021/03/12 09:59:29;;;;;;;15.77;2.80;;;;;;;6.60;62.96;100164.63;10176143;28;20054;-64
2021/03/12 10:04:47;;;;;;;10.27;2.63;;;;;;;6.82;62.04;100161.16;10166544;28;20420;-67
2021/03/12 10:10:14;;;;;;;13.18;2.47;;;;;;;7.10;62.08;100156.44;10222636;28;20601;-64
2021/03/12 10:15:15;;;;;;;11.45;2.30;;;;;;;6.97;62.29;100162.75;10218069;28;20072;-67
2021/03/12 10:20:22;;;;;;;13.02;2.58;;;;;;;6.89;61.88;100145.22;10202905;28;20045;-66
2021/03/12 10:25:21;;;;;;;12.25;1.95;;;;;;;7.02;61.61;100151.75;10155872;28;20064;-67
2021/03/12 10:30:19;;;;;;;10.73;2.97;;;;;;;6.78;62.37;100150.09;10172776;28;20057;-66
2021/03/12 10:35:27;;;;;;;16.58;2.80;;;;;;;6.87;61.46;100159.16;10175793;28;20046;-66
2021/03/12 10:40:25;;;;;;;13.45;3.03;;;;;;;7.04;61.50;100163.13;10183256;28;20451;-66
2021/03/12 10:45:22;;;;;;;10.23;2.70;;;;;;;7.08;61.45;100175.00;10158317;28;20358;-68
2021/03/12 10:50:22;;;;;;;18.25;3.10;;;;;;;7.17;60.35;100162.25;10162982;28;20061;-67
2021/03/12 10:55:18;;;;;;;10.23;2.38;;;;;;;7.07;60.89;100162.50;10157366;28;20042;-68
2021/03/12 11:00:21;;;;;;;9.95;2.85;;;;;;;7.12;60.64;100159.66;10157533;28;20050;-68
2021/03/12 11:05:17;;;;;;;13.73;2.47;;;;;;;7.73;59.47;100141.03;10159424;28;20050;-67
2021/03/12 11:10:15;;;;;;;17.83;2.80;;;;;;;7.61;58.86;100152.44;10163100;28;20055;-68
2021/03/12 11:15:13;;;;;;;15.68;2.55;;;;;;;7.22;59.38;100137.66;10176415;28;20381;-68
2021/03/12 11:20:09;;;;;;;11.50;2.55;;;;;;;7.52;58.53;100143.44;10170953;28;20058;-68
2021/03/12 11:25:07;;;;;;;12.98;2.72;;;;;;;7.45;58.73;100134.91;10174821;28;20050;-66
2021/03/12 11:30:08;;;;;;;16.08;3.65;;;;;;;7.38;59.18;100135.38;10207405;28;20137;-67
2021/03/12 11:35:06;;;;;;;11.55;2.90;;;;;;;7.47;59.57;100141.69;10194604;28;20545;-68
2021/03/12 11:40:04;;;;;;;14.93;3.95;;;;;;;7.53;58.95;100137.69;10170138;28;20071;-67
2021/03/12 11:45:01;;;;;;;10.70;3.65;;;;;;;7.43;58.70;100134.44;10165549;28;20037;-67
2021/03/12 11:49:57;;;;;;;10.98;3.28;;;;;;;8.25;56.64;100134.97;10176684;28;20057;-68
2021/03/12 11:54:54;;;;;;;10.15;2.78;;;;;;;8.36;56.95;100130.84;10159807;28;20042;-67
2021/03/12 11:59:51;;;;;;;13.63;2.67;;;;;;;8.09;56.97;100131.88;10155731;28;20046;-66
2021/03/12 12:04:47;;;;;;;9.40;2.47;;;;;;;8.10;56.30;100150.63;10176806;28;20104;-67
2021/03/12 12:09:44;;;;;;;10.60;2.60;;;;;;;8.13;56.23;100121.97;10173982;28;20045;-66
2021/03/12 12:14:41;;;;;;;35.25;3.08;;;;;;;8.05;56.60;100131.69;10168861;28;20382;-67
2021/03/12 12:19:37;;;;;;;9.13;2.20;;;;;;;7.85;56.75;100110.50;10170982;28;20100;-66
2021/03/12 12:24:34;;;;;;;9.38;2.00;;;;;;;7.78;55.78;100106.28;10166105;28;20134;-67
2021/03/12 12:29:30;;;;;;;10.52;2.72;;;;;;;8.01;56.31;100089.88;10169999;28;20046;-66
2021/03/12 12:34:26;;;;;;;12.70;1.95;;;;;;;8.09;54.94;100091.03;10163785;28;20050;-68
2021/03/12 12:39:23;;;;;;;8.90;1.70;;;;;;;7.95;54.91;100093.88;10169634;28;20496;-67
2021/03/12 12:44:19;;;;;;;9.52;2.22;;;;;;;8.47;54.52;100083.13;10170804;28;20049;-67
2021/03/12 12:49:15;;;;;;;8.10;2.28;;;;;;;8.35;53.58;100070.06;10174914;28;20057;-67
2021/03/12 12:54:12;;;;;;;15.75;2.10;;;;;;;8.30;53.72;100066.72;10165191;28;20035;-67
2021/03/12 12:59:08;;;;;;;9.10;2.13;;;;;;;7.98;54.61;100066.81;10198142;28;20108;-64
2021/03/12 13:04:04;;;;;;;9.55;1.83;;;;;;;7.75;57.11;100074.28;10181116;28;20061;-67
2021/03/12 13:09:00;;;;;;;11.10;2.72;;;;;;;7.69;59.60;100070.06;10160581;28;20050;-66
2021/03/12 13:13:57;;;;;;;9.60;2.15;;;;;;;7.53;58.55;100044.41;10168624;28;20065;-66
2021/03/12 13:18:53;;;;;;;9.82;2.10;;;;;;;7.38;59.38;100037.47;10172054;28;20444;-66
2021/03/12 13:23:51;;;;;;;13.38;2.83;;;;;;;7.59;58.25;100043.16;10161355;28;20038;-66
2021/03/12 13:28:47;;;;;;;7.68;1.67;;;;;;;7.68;58.14;100063.03;10161781;28;20084;-66
2021/03/12 13:33:43;;;;;;;14.20;2.40;;;;;;;7.89;57.80;100017.00;10167657;28;20512;-66
2021/03/12 13:38:39;;;;;;;14.02;2.50;;;;;;;8.16;56.96;100002.28;10166246;28;20041;-68
2021/03/12 13:43:35;;;;;;;12.30;2.28;;;;;;;8.19;55.75;99992.69;10162383;28;20046;-67
2021/03/12 13:48:32;;;;;;;10.20;1.92;;;;;;;8.10;56.55;100000.88;10174014;28;20496;-67
2021/03/12 13:53:28;;;;;;;9.65;1.88;;;;;;;8.04;56.39;99990.44;10177090;28;20042;-67
2021/03/12 13:58:24;;;;;;;12.80;2.47;;;;;;;8.06;56.15;99974.59;10171066;28;20047;-67
2021/03/12 14:03:20;;;;;;;17.77;2.40;;;;;;;7.94;56.03;99986.91;10158305;28;20110;-66
2021/03/12 14:08:16;;;;;;;11.60;2.03;;;;;;;8.04;56.24;99968.66;10171728;28;20057;-66
2021/03/12 14:13:12;;;;;;;16.23;2.30;;;;;;;8.15;55.85;99940.00;10171727;28;20041;-64
2021/03/12 14:18:08;;;;;;;10.63;2.45;;;;;;;8.10;55.66;99935.53;10164338;28;20130;-67
2021/03/12 14:23:05;;;;;;;12.00;2.65;;;;;;;7.73;58.99;99966.84;10166497;28;20417;-67
2021/03/12 14:28:02;;;;;;;11.43;1.65;;;;;;;6.99;66.32;99998.25;10170505;28;20046;-66
2021/03/12 14:32:58;;;;;;;6.15;1.95;;;;;;;6.51;71.89;99972.50;10169867;28;20043;-67
2021/03/12 14:37:54;;;;;;;11.23;1.98;;;;;;;6.20;74.21;99972.44;10169945;28;20074;-65
2021/03/12 14:42:50;;;;;;;6.82;1.58;;;;;;;6.08;74.35;99991.16;10163607;28;20103;-65
2021/03/12 14:47:47;;;;;;;12.90;2.03;;;;;;;5.84;77.15;99973.19;10187517;28;20075;-66
2021/03/12 14:52:43;;;;;;;12.85;2.88;;;;;;;5.92;78.16;99966.25;10188512;28;20050;-66
2021/03/12 14:57:50;;;;;;;10.80;2.40;;;;;;;5.92;77.91;99944.56;10161429;28;20843;-64
2021/03/12 15:02:47;;;;;;;13.88;2.45;;;;;;;6.04;77.46;99925.03;10175172;28;20054;-65
2021/03/12 15:07:44;;;;;;;13.63;2.60;;;;;;;6.19;77.88;99910.31;10168973;28;20155;-67
2021/03/12 15:12:40;;;;;;;11.48;3.05;;;;;;;6.17;77.14;99898.94;10169958;28;20056;-66
2021/03/12 15:17:36;;;;;;;13.77;2.55;;;;;;;6.17;77.00;99907.09;10171487;28;20045;-66
2021/03/12 15:22:33;;;;;;;9.93;2.60;;;;;;;6.27;75.39;99885.16;10166520;28;20720;-67
2021/03/12 15:27:30;;;;;;;11.00;2.08;;;;;;;6.36;74.71;99888.72;10169018;28;20107;-66
2021/03/12 15:32:26;;;;;;;12.65;2.20;;;;;;;6.58;74.00;99884.38;10172962;28;20135;-67
2021/03/12 15:37:22;;;;;;;8.95;1.73;;;;;;;6.64;71.92;99883.13;10173100;28;20060;-67
2021/03/12 15:42:18;;;;;;;12.95;1.77;;;;;;;6.80;71.27;99881.63;10177606;28;20492;-66
2021/03/12 15:47:14;;;;;;;8.52;1.75;;;;;;;6.96;70.55;99871.09;10165799;28;20050;-66
2021/03/12 15:52:11;;;;;;;12.48;2.20;;;;;;;7.11;69.85;99875.34;10167960;28;20101;-65
2021/03/12 15:57:07;;;;;;;8.43;2.20;;;;;;;7.10;69.69;99852.78;10155163;28;20048;-67
2021/03/12 16:02:05;;;;;;;12.35;2.25;;;;;;;7.15;69.15;99849.13;10155362;28;20093;-67
2021/03/12 16:07:01;;;;;;;10.38;2.30;;;;;;;7.15;69.34;99832.81;10165595;28;20046;-65
2021/03/12 16:11:57;;;;;;;9.98;2.05;;;;;;;7.01;69.62;99832.94;10173744;28;20393;-67
2021/03/12 16:16:53;;;;;;;10.88;2.28;;;;;;;7.08;69.05;99808.00;10158930;28;20042;-67
2021/03/12 16:21:49;;;;;;;12.98;2.67;;;;;;;7.05;69.41;99816.78;10169359;28;20060;-67
2021/03/12 16:26:45;;;;;;;6.68;1.77;;;;;;;6.99;68.37;99809.91;10167044;28;20060;-67
2021/03/12 16:31:42;;;;;;;6.38;1.63;;;;;;;6.92;68.44;99805.72;10177518;28;20042;-66
2021/03/12 16:36:39;;;;;;;7.82;1.80;;;;;;;6.92;69.09;99796.78;10178476;28;20065;-67
2021/03/12 16:41:35;;;;;;;11.85;2.45;;;;;;;6.92;69.30;99775.84;10173153;28;20269;-67
2021/03/12 16:46:31;;;;;;;6.95;2.17;;;;;;;6.88;68.85;99769.41;10164299;28;20055;-67
2021/03/12 16:51:27;;;;;;;10.57;2.78;;;;;;;6.82;69.07;99754.38;10179415;28;20049;-67
2021/03/12 16:56:24;;;;;;;12.15;3.20;;;;;;;6.78;69.30;99748.00;10178883;28;20058;-67
2021/03/12 17:01:20;;;;;;;99.55;40.60;;;;;;;6.66;72.77;99740.44;10163006;28;20092;-67
2021/03/12 17:06:16;;;;;;;10.68;3.88;;;;;;;6.59;73.96;99733.84;10166507;28;20064;-66
2021/03/12 17:11:13;;;;;;;13.20;3.85;;;;;;;6.46;75.17;99725.53;10163466;28;20585;-66
2021/03/12 17:16:11;;;;;;;16.80;5.70;;;;;;;6.36;74.42;99712.25;10162218;28;20364;-67
2021/03/12 17:21:07;;;;;;;13.77;4.63;;;;;;;6.42;74.63;99702.03;10154660;28;20077;-67
2021/03/12 17:26:04;;;;;;;15.40;5.53;;;;;;;6.42;74.72;99713.69;10169748;28;20072;-67
2021/03/12 17:31:01;;;;;;;15.07;4.47;;;;;;;6.37;74.46;99694.81;10200565;28;20397;-67
2021/03/12 17:35:57;;;;;;;12.65;3.55;;;;;;;6.37;74.00;99683.16;10165108;28;20072;-65
2021/03/12 17:40:53;;;;;;;11.75;3.42;;;;;;;6.42;73.37;99669.44;10165514;28;20899;-66
2021/03/12 17:45:49;;;;;;;14.85;4.03;;;;;;;6.47;74.03;99656.50;10168543;28;20061;-64
2021/03/12 17:50:45;;;;;;;11.63;3.17;;;;;;;6.48;72.83;99641.81;10176942;28;20046;-65
2021/03/12 17:55:41;;;;;;;9.07;2.53;;;;;;;6.56;72.09;99636.72;10173865;28;20053;-67
2021/03/12 18:00:38;;;;;;;13.55;2.58;;;;;;;6.53;72.33;99636.25;10168447;28;20120;-65
2021/03/12 18:05:34;;;;;;;9.95;3.40;;;;;;;6.37;76.07;99686.69;10169905;28;20121;-64
2021/03/12 18:10:30;;;;;;;9.70;1.98;;;;;;;5.51;81.18;99755.59;10157635;28;20463;-67
2021/03/12 18:15:26;;;;;;;4.47;0.88;;;;;;;4.94;81.56;99745.22;10167589;28;20899;-69
2021/03/12 18:20:22;;;;;;;3.47;0.80;;;;;;;4.61;82.45;99793.28;10166671;28;20054;-68
2021/03/12 18:25:19;;;;;;;4.60;1.10;;;;;;;4.30;84.93;99799.28;10168474;28;20042;-69
2021/03/12 18:30:16;;;;;;;3.90;1.10;;;;;;;4.21;86.55;99795.66;10177790;28;20058;-65
2021/03/12 18:35:12;;;;;;;3.00;0.75;;;;;;;3.83;85.87;99790.34;10169151;28;20550;-69
2021/03/12 18:40:09;;;;;;;2.95;0.70;;;;;;;3.70;86.77;99764.06;10174328;28;20066;-68
2021/03/12 18:45:07;;;;;;;2.38;0.95;;;;;;;3.66;86.03;99741.41;10158964;28;20111;-68
2021/03/12 18:50:05;;;;;;;1.90;0.70;;;;;;;3.80;86.09;99739.56;10169331;28;20548;-69
2021/03/12 18:55:02;;;;;;;2.17;1.13;;;;;;;3.76;85.17;99733.13;10157136;28;20124;-67
2021/03/12 18:59:58;;;;;;;5.10;1.92;;;;;;;3.72;84.95;99743.75;10174445;28;20129;-68
2021/03/12 19:04:54;;;;;;;4.32;1.15;;;;;;;3.75;85.21;99739.63;10170217;28;20049;-66
2021/03/12 19:09:51;;;;;;;9.27;2.08;;;;;;;3.72;84.85;99718.63;10160541;28;20054;-70
2021/03/12 19:14:48;;;;;;;3.22;1.08;;;;;;;3.74;84.11;99728.03;10168516;28;20048;-70
2021/03/12 19:19:44;;;;;;;4.13;1.17;;;;;;;3.64;84.40;99711.16;10160956;28;20054;-70
2021/03/12 19:24:40;;;;;;;5.07;1.60;;;;;;;3.64;84.26;99732.78;10174997;28;20046;-70
2021/03/12 19:29:36;;;;;;;5.85;1.70;;;;;;;3.76;84.39;99711.50;10153434;28;20050;-69
2021/03/12 19:34:32;;;;;;;4.90;1.83;;;;;;;3.77;84.14;99705.00;10161514;28;20107;-69
2021/03/12 19:39:28;;;;;;;5.20;2.20;;;;;;;3.77;84.37;99702.28;10163234;28;20405;-66
2021/03/12 19:44:25;;;;;;;5.15;1.95;;;;;;;3.79;83.66;99708.22;10163505;28;20119;-68
2021/03/12 19:49:21;;;;;;;8.02;3.58;;;;;;;3.79;84.39;99702.81;10201651;28;20045;-68
2021/03/12 19:54:18;;;;;;;5.85;2.83;;;;;;;3.87;83.97;99704.81;10176188;28;20099;-69
2021/03/12 19:59:23;;;;;;;7.82;3.08;;;;;;;3.78;84.00;99682.25;10158528;28;20046;-67
2021/03/12 20:04:19;;;;;;;7.47;2.88;;;;;;;3.86;83.27;99681.59;10165650;28;20727;-69
2021/03/12 20:09:18;;;;;;;6.30;2.80;;;;;;;3.89;82.84;99685.59;10168662;28;20049;-67
2021/03/12 20:14:16;;;;;;;5.90;2.33;;;;;;;3.91;82.27;99695.00;10165550;28;20125;-68
2021/03/12 20:19:12;;;;;;;11.05;3.47;;;;;;;3.91;82.16;99684.19;10156376;28;20050;-67
2021/03/12 20:24:14;;;;;;;6.60;2.45;;;;;;;3.92;81.40;99696.63;10156981;28;20046;-68
2021/03/12 20:29:11;;;;;;;6.80;3.30;;;;;;;3.95;81.68;99687.91;10166488;28;20050;-69
2021/03/12 20:34:07;;;;;;;4.93;1.50;;;;;;;3.85;81.36;99690.78;10179156;28;20665;-69
2021/03/12 20:39:07;;;;;;;4.93;1.70;;;;;;;3.98;81.12;99679.19;10169220;28;20833;-67
2021/03/12 20:44:03;;;;;;;6.60;1.95;;;;;;;3.95;81.13;99685.22;10174642;28;20487;-69
2021/03/12 20:48:59;;;;;;;6.25;1.90;;;;;;;3.95;81.38;99698.72;10171788;28;20057;-71
2021/03/12 20:53:55;;;;;;;4.40;1.60;;;;;;;3.90;81.01;99690.72;10165752;28;20042;-68
2021/03/12 20:58:51;;;;;;;8.25;1.30;;;;;;;3.98;80.57;99679.19;10159932;28;20092;-68
2021/03/12 21:03:47;;;;;;;5.30;1.05;;;;;;;3.95;80.51;99690.63;10162810;28;20408;-68
2021/03/12 21:08:44;;;;;;;4.32;1.08;;;;;;;3.91;79.97;99684.19;10167407;28;20057;-67
2021/03/12 21:13:40;;;;;;;4.03;1.02;;;;;;;3.99;79.80;99691.63;10160956;28;20678;-69
2021/03/12 21:18:37;;;;;;;5.00;0.82;;;;;;;3.92;78.43;99693.09;10158908;28;20058;-69
2021/03/12 21:23:34;;;;;;;4.18;0.93;;;;;;;3.92;78.65;99702.03;10156872;28;20577;-67
2021/03/12 21:28:30;;;;;;;3.67;1.08;;;;;;;3.92;78.27;99702.03;10163916;28;20062;-68
2021/03/12 21:33:26;;;;;;;5.40;1.35;;;;;;;3.95;78.03;99693.31;10157326;28;20570;-68
2021/03/12 21:38:22;;;;;;;5.25;0.93;;;;;;;3.94;77.28;99705.22;10163245;28;20529;-68
2021/03/12 21:43:18;;;;;;;4.40;1.00;;;;;;;3.95;77.74;99701.44;10171683;28;20050;-68
2021/03/12 21:48:15;;;;;;;3.22;1.00;;;;;;;3.88;77.70;99711.84;10161985;28;20515;-66
2021/03/12 21:53:12;;;;;;;5.75;1.35;;;;;;;3.90;78.35;99714.22;10173471;28;20062;-66
2021/03/12 21:58:08;;;;;;;4.63;1.38;;;;;;;3.85;77.78;99706.22;10171309;28;20515;-67
2021/03/12 22:03:04;;;;;;;4.25;1.45;;;;;;;3.79;78.61;99725.22;10163907;28;20046;-67
2021/03/12 22:08:06;;;;;;;7.15;1.58;;;;;;;3.75;79.24;99707.19;10162137;28;20054;-67
2021/03/12 22:13:05;;;;;;;6.40;1.50;;;;;;;3.75;79.38;99718.00;10158665;28;20058;-67
2021/03/12 22:18:01;;;;;;;4.38;1.70;;;;;;;3.78;79.42;99714.72;10152791;28;20073;-66
2021/03/12 22:22:58;;;;;;;6.43;1.90;;;;;;;3.71;80.22;99714.28;10169243;28;20054;-68
2021/03/12 22:27:55;;;;;;;6.70;1.92;;;;;;;3.73;79.54;99703.97;10162826;28;20053;-66
2021/03/12 22:32:52;;;;;;;8.75;2.60;;;;;;;3.81;79.71;99714.13;10166901;28;20046;-67
2021/03/12 22:37:49;;;;;;;7.78;2.60;;;;;;;3.85;79.84;99706.22;10150965;28;20042;-67
2021/03/12 22:42:46;;;;;;;6.70;2.72;;;;;;;3.82;80.30;99709.53;10156704;28;20125;-67
2021/03/12 22:47:42;;;;;;;9.80;3.05;;;;;;;3.80;80.32;99709.81;10162445;28;20045;-67
2021/03/12 22:52:39;;;;;;;7.05;3.47;;;;;;;3.72;80.49;99714.00;10167122;28;20039;-67
2021/03/12 22:57:35;;;;;;;9.30;3.58;;;;;;;3.82;81.23;99723.84;10159875;28;20053;-67
2021/03/12 23:02:32;;;;;;;7.95;3.60;;;;;;;3.85;81.87;99723.22;10160299;28;20050;-66
2021/03/12 23:07:28;;;;;;;10.32;3.78;;;;;;;3.89;81.38;99724.25;10158666;28;20452;-67